sensor_id;sensor_type;location;lat;lon;timestamp;P1;durP1;ratioP1;P2;durP2;ratioP2
43554;SDS011;35085;40.398;-3.702;2022-12-18T00:01:49;21.77;;;10.48;;
43554;SDS011;35085;40.398;-3.702;2022-12-18T00:11:59;28.90;;;13.05;;
43554;SDS011;35085;40.398;-3.702;2022-12-18T00:22:29;24.00;;;11.70;;
43554;SDS011;35085;40.398;-3.702;2022-12-18T00:32:39;29.15;;;11.48;;
43554;SDS011;35085;40.398;-3.702;2022-12-18T00:43:10;30.60;;;12.65;;
43554;SDS011;35085;40.398;-3.702;2022-12-18T00:53:18;29.80;;;11.50;;
43554;SDS011;35085;40.398;-3.702;2022-12-18T01:03:49;33.05;;;10.82;;
43554;SDS011;35085;40.398;-3.702;2022-12-18T01:13:58;31.75;;;9.75;;
43554;SDS011;35085;40.398;-3.702;2022-12-18T01:24:29;39.15;;;11.98;;
43554;SDS011;35085;40.398;-3.702;2022-12-18T01:34:38;42.80;;;12.70;;
43554;SDS011;35085;40.398;-3.702;2022-12-18T01:55:26;46.53;;;11.75;;
43554;SDS011;35085;40.398;-3.702;2022-12-18T02:27:00;29.75;;;10.60;;
43554;SDS011;35085;40.398;-3.702;2022-12-18T02:37:29;23.08;;;9.90;;
43554;SDS011;35085;40.398;-3.702;2022-12-18T02:48:12;25.40;;;9.80;;
43554;SDS011;35085;40.398;-3.702;2022-12-18T03:09:17;17.95;;;6.97;;
43554;SDS011;35085;40.398;-3.702;2022-12-18T03:19:31;24.63;;;7.55;;
43554;SDS011;35085;40.398;-3.702;2022-12-18T03:30:06;24.45;;;8.32;;
43554;SDS011;35085;40.398;-3.702;2022-12-18T03:40:23;30.17;;;9.05;;
43554;SDS011;35085;40.398;-3.702;2022-12-18T03:51:02;17.77;;;7.27;;
43554;SDS011;35085;40.398;-3.702;2022-12-18T04:01:15;22.35;;;8.23;;
43554;SDS011;35085;40.398;-3.702;2022-12-18T04:11:48;22.27;;;7.57;;
43554;SDS011;35085;40.398;-3.702;2022-12-18T04:21:59;18.87;;;6.73;;
43554;SDS011;35085;40.398;-3.702;2022-12-18T04:32:37;16.77;;;6.45;;
43554;SDS011;35085;40.398;-3.702;2022-12-18T04:42:48;16.33;;;6.47;;
43554;SDS011;35085;40.398;-3.702;2022-12-18T04:53:33;17.23;;;6.43;;
43554;SDS011;35085;40.398;-3.702;2022-12-18T05:03:43;16.15;;;7.07;;
43554;SDS011;35085;40.398;-3.702;2022-12-18T05:14:14;26.33;;;8.50;;
43554;SDS011;35085;40.398;-3.702;2022-12-18T05:24:24;22.38;;;7.07;;
43554;SDS011;35085;40.398;-3.702;2022-12-18T05:34:55;21.90;;;7.07;;
43554;SDS011;35085;40.398;-3.702;2022-12-18T05:45:05;19.73;;;7.82;;
43554;SDS011;35085;40.398;-3.702;2022-12-18T05:55:36;18.50;;;7.70;;
43554;SDS011;35085;40.398;-3.702;2022-12-18T06:05:47;17.80;;;7.18;;
43554;SDS011;35085;40.398;-3.702;2022-12-18T06:16:18;14.82;;;6.57;;
43554;SDS011;35085;40.398;-3.702;2022-12-18T06:26:33;12.77;;;5.68;;
43554;SDS011;35085;40.398;-3.702;2022-12-18T06:37:21;13.75;;;5.10;;
43554;SDS011;35085;40.398;-3.702;2022-12-18T06:47:53;11.02;;;4.35;;
43554;SDS011;35085;40.398;-3.702;2022-12-18T06:58:41;12.07;;;5.18;;
43554;SDS011;35085;40.398;-3.702;2022-12-18T07:09:01;13.63;;;4.75;;
43554;SDS011;35085;40.398;-3.702;2022-12-18T07:19:38;13.33;;;5.20;;
43554;SDS011;35085;40.398;-3.702;2022-12-18T07:29:50;17.13;;;6.03;;
43554;SDS011;35085;40.398;-3.702;2022-12-18T07:40:24;19.67;;;7.43;;
43554;SDS011;35085;40.398;-3.702;2022-12-18T07:50:38;18.23;;;6.87;;
43554;SDS011;35085;40.398;-3.702;2022-12-18T08:01:14;18.60;;;7.05;;
43554;SDS011;35085;40.398;-3.702;2022-12-18T08:11:24;17.00;;;6.57;;
43554;SDS011;35085;40.398;-3.702;2022-12-18T08:21:55;34.47;;;14.40;;
43554;SDS011;35085;40.398;-3.702;2022-12-18T08:32:05;14.25;;;5.82;;
43554;SDS011;35085;40.398;-3.702;2022-12-18T08:42:36;22.55;;;9.60;;
43554;SDS011;35085;40.398;-3.702;2022-12-18T08:53:04;18.15;;;6.88;;
43554;SDS011;35085;40.398;-3.702;2022-12-18T09:03:33;14.02;;;5.38;;
43554;SDS011;35085;40.398;-3.702;2022-12-18T09:13:44;15.40;;;5.10;;
43554;SDS011;35085;40.398;-3.702;2022-12-18T09:24:14;13.95;;;5.75;;
43554;SDS011;35085;40.398;-3.702;2022-12-18T09:34:24;17.17;;;6.68;;
43554;SDS011;35085;40.398;-3.702;2022-12-18T09:44:55;17.42;;;8.25;;
43554;SDS011;35085;40.398;-3.702;2022-12-18T09:55:10;12.30;;;5.78;;
43554;SDS011;35085;40.398;-3.702;2022-12-18T10:26:46;16.85;;;6.05;;
43554;SDS011;35085;40.398;-3.702;2022-12-18T10:36:56;15.93;;;5.95;;
43554;SDS011;35085;40.398;-3.702;2022-12-18T10:47:28;15.65;;;6.13;;
43554;SDS011;35085;40.398;-3.702;2022-12-18T10:57:38;11.55;;;5.03;;
43554;SDS011;35085;40.398;-3.702;2022-12-18T11:08:11;11.95;;;4.45;;
43554;SDS011;35085;40.398;-3.702;2022-12-18T11:18:33;31.05;;;18.15;;
43554;SDS011;35085;40.398;-3.702;2022-12-18T11:29:08;8.88;;;3.92;;
43554;SDS011;35085;40.398;-3.702;2022-12-18T11:49:47;25.20;;;13.93;;
43554;SDS011;35085;40.398;-3.702;2022-12-18T12:10:39;6.50;;;2.20;;
43554;SDS011;35085;40.398;-3.702;2022-12-18T12:31:37;6.80;;;3.53;;
43554;SDS011;35085;40.398;-3.702;2022-12-18T12:41:51;6.20;;;2.72;;
43554;SDS011;35085;40.398;-3.702;2022-12-18T12:52:40;4.80;;;2.65;;
43554;SDS011;35085;40.398;-3.702;2022-12-18T13:03:08;4.50;;;2.30;;
43554;SDS011;35085;40.398;-3.702;2022-12-18T13:24:15;9.50;;;3.20;;
43554;SDS011;35085;40.398;-3.702;2022-12-18T13:34:45;6.53;;;4.03;;
43554;SDS011;35085;40.398;-3.702;2022-12-18T13:44:54;8.50;;;2.80;;
43554;SDS011;35085;40.398;-3.702;2022-12-18T13:55:26;25.20;;;14.05;;
43554;SDS011;35085;40.398;-3.702;2022-12-18T14:05:36;7.30;;;3.22;;
43554;SDS011;35085;40.398;-3.702;2022-12-18T14:16:11;7.43;;;3.80;;
43554;SDS011;35085;40.398;-3.702;2022-12-18T14:26:26;8.25;;;3.50;;
43554;SDS011;35085;40.398;-3.702;2022-12-18T14:36:56;32.95;;;16.85;;
43554;SDS011;35085;40.398;-3.702;2022-12-18T14:47:04;26.23;;;16.40;;
43554;SDS011;35085;40.398;-3.702;2022-12-18T14:57:36;6.53;;;3.60;;
43554;SDS011;35085;40.398;-3.702;2022-12-18T15:07:49;8.23;;;3.50;;
43554;SDS011;35085;40.398;-3.702;2022-12-18T15:18:21;8.07;;;4.15;;
43554;SDS011;35085;40.398;-3.702;2022-12-18T15:39:04;8.32;;;3.90;;
43554;SDS011;35085;40.398;-3.702;2022-12-18T15:49:12;6.03;;;2.97;;
43554;SDS011;35085;40.398;-3.702;2022-12-18T15:59:41;9.13;;;4.10;;
43554;SDS011;35085;40.398;-3.702;2022-12-18T16:09:50;7.82;;;3.70;;
43554;SDS011;35085;40.398;-3.702;2022-12-18T16:20:21;6.00;;;2.80;;
43554;SDS011;35085;40.398;-3.702;2022-12-18T16:30:31;3.40;;;1.98;;
43554;SDS011;35085;40.398;-3.702;2022-12-18T16:41:01;6.35;;;2.58;;
43554;SDS011;35085;40.398;-3.702;2022-12-18T16:51:29;6.68;;;3.50;;
43554;SDS011;35085;40.398;-3.702;2022-12-18T17:01:59;11.00;;;4.93;;
43554;SDS011;35085;40.398;-3.702;2022-12-18T17:12:09;13.85;;;5.25;;
43554;SDS011;35085;40.398;-3.702;2022-12-18T17:22:39;10.27;;;5.25;;
43554;SDS011;35085;40.398;-3.702;2022-12-18T17:32:48;12.93;;;6.07;;
43554;SDS011;35085;40.398;-3.702;2022-12-18T17:43:17;11.13;;;5.63;;
43554;SDS011;35085;40.398;-3.702;2022-12-18T17:53:26;11.45;;;6.40;;
43554;SDS011;35085;40.398;-3.702;2022-12-18T18:03:55;10.15;;;6.25;;
43554;SDS011;35085;40.398;-3.702;2022-12-18T18:14:10;16.67;;;6.25;;
43554;SDS011;35085;40.398;-3.702;2022-12-18T18:24:39;12.20;;;6.67;;
43554;SDS011;35085;40.398;-3.702;2022-12-18T18:34:50;12.10;;;6.80;;
43554;SDS011;35085;40.398;-3.702;2022-12-18T18:45:20;12.63;;;6.35;;
43554;SDS011;35085;40.398;-3.702;2022-12-18T18:55:31;11.48;;;5.85;;
43554;SDS011;35085;40.398;-3.702;2022-12-18T19:06:01;13.18;;;6.68;;
43554;SDS011;35085;40.398;-3.702;2022-12-18T19:16:10;12.88;;;6.93;;
43554;SDS011;35085;40.398;-3.702;2022-12-18T19:26:40;8.93;;;5.50;;
43554;SDS011;35085;40.398;-3.702;2022-12-18T19:36:49;13.35;;;7.63;;
43554;SDS011;35085;40.398;-3.702;2022-12-18T19:47:19;12.02;;;5.82;;
43554;SDS011;35085;40.398;-3.702;2022-12-18T19:57:27;13.07;;;6.38;;
43554;SDS011;35085;40.398;-3.702;2022-12-18T20:07:57;10.63;;;5.65;;
43554;SDS011;35085;40.398;-3.702;2022-12-18T20:18:05;12.07;;;6.10;;
43554;SDS011;35085;40.398;-3.702;2022-12-18T20:28:35;14.93;;;6.88;;
43554;SDS011;35085;40.398;-3.702;2022-12-18T20:38:44;10.48;;;5.05;;
43554;SDS011;35085;40.398;-3.702;2022-12-18T20:49:14;11.10;;;5.38;;
43554;SDS011;35085;40.398;-3.702;2022-12-18T20:59:23;16.00;;;6.75;;
43554;SDS011;35085;40.398;-3.702;2022-12-18T21:09:52;15.40;;;7.65;;
43554;SDS011;35085;40.398;-3.702;2022-12-18T21:20:01;13.18;;;6.75;;
43554;SDS011;35085;40.398;-3.702;2022-12-18T21:30:31;19.88;;;9.00;;
43554;SDS011;35085;40.398;-3.702;2022-12-18T21:40:41;13.60;;;6.38;;
43554;SDS011;35085;40.398;-3.702;2022-12-18T21:51:11;12.88;;;6.63;;
43554;SDS011;35085;40.398;-3.702;2022-12-18T22:01:21;13.65;;;7.28;;
43554;SDS011;35085;40.398;-3.702;2022-12-18T22:11:52;18.30;;;8.50;;
43554;SDS011;35085;40.398;-3.702;2022-12-18T22:22:01;14.50;;;7.50;;
43554;SDS011;35085;40.398;-3.702;2022-12-18T22:32:41;16.90;;;7.85;;
43554;SDS011;35085;40.398;-3.702;2022-12-18T22:43:11;15.98;;;7.93;;
43554;SDS011;35085;40.398;-3.702;2022-12-18T22:53:22;14.48;;;7.65;;
43554;SDS011;35085;40.398;-3.702;2022-12-18T23:03:52;14.52;;;8.07;;
43554;SDS011;35085;40.398;-3.702;2022-12-18T23:14:01;13.95;;;7.45;;
43554;SDS011;35085;40.398;-3.702;2022-12-18T23:24:32;15.57;;;8.00;;
43554;SDS011;35085;40.398;-3.702;2022-12-18T23:34:42;20.83;;;7.82;;
43554;SDS011;35085;40.398;-3.702;2022-12-18T23:45:12;19.33;;;7.88;;
43554;SDS011;35085;40.398;-3.702;2022-12-18T23:55:21;17.02;;;8.05;;
